sensor_id;sensor_type;location;lat;lon;timestamp;P1;durP1;ratioP1;P2;durP2;ratioP2
69358;SDS011;56520;49.066;8.660;2023-07-31T00:01:02;3.42;;;0.80;;
69358;SDS011;56520;49.066;8.660;2023-07-31T00:03:27;2.63;;;1.10;;
69358;SDS011;56520;49.066;8.660;2023-07-31T00:05:53;2.28;;;0.80;;
69358;SDS011;56520;49.066;8.660;2023-07-31T00:08:18;3.38;;;0.82;;
69358;SDS011;56520;49.066;8.660;2023-07-31T00:10:43;3.33;;;0.82;;
69358;SDS011;56520;49.066;8.660;2023-07-31T00:13:09;2.97;;;0.93;;
69358;SDS011;56520;49.066;8.660;2023-07-31T00:15:34;2.33;;;0.98;;
69358;SDS011;56520;49.066;8.660;2023-07-31T00:18:00;2.58;;;0.98;;
69358;SDS011;56520;49.066;8.660;2023-07-31T00:20:26;2.83;;;0.98;;
69358;SDS011;56520;49.066;8.660;2023-07-31T00:22:51;2.45;;;0.93;;
69358;SDS011;56520;49.066;8.660;2023-07-31T00:25:17;3.85;;;1.00;;
69358;SDS011;56520;49.066;8.660;2023-07-31T00:27:42;4.40;;;0.88;;
69358;SDS011;56520;49.066;8.660;2023-07-31T00:30:09;3.42;;;0.90;;
69358;SDS011;56520;49.066;8.660;2023-07-31T00:32:35;1.02;;;0.70;;
69358;SDS011;56520;49.066;8.660;2023-07-31T00:35:01;3.55;;;1.13;;
69358;SDS011;56520;49.066;8.660;2023-07-31T00:37:27;3.40;;;1.10;;
69358;SDS011;56520;49.066;8.660;2023-07-31T00:39:52;3.88;;;1.20;;
69358;SDS011;56520;49.066;8.660;2023-07-31T00:42:18;5.15;;;0.90;;
69358;SDS011;56520;49.066;8.660;2023-07-31T00:44:43;4.70;;;1.05;;
69358;SDS011;56520;49.066;8.660;2023-07-31T00:47:08;2.83;;;0.93;;
69358;SDS011;56520;49.066;8.660;2023-07-31T00:49:34;3.55;;;0.90;;
69358;SDS011;56520;49.066;8.660;2023-07-31T00:51:59;3.13;;;1.20;;
69358;SDS011;56520;49.066;8.660;2023-07-31T00:54:25;2.85;;;0.88;;
69358;SDS011;56520;49.066;8.660;2023-07-31T00:56:51;3.47;;;1.20;;
69358;SDS011;56520;49.066;8.660;2023-07-31T00:59:19;3.75;;;1.20;;
69358;SDS011;56520;49.066;8.660;2023-07-31T01:01:44;2.40;;;0.98;;
69358;SDS011;56520;49.066;8.660;2023-07-31T01:04:10;3.40;;;1.20;;
69358;SDS011;56520;49.066;8.660;2023-07-31T01:06:38;1.58;;;0.75;;
69358;SDS011;56520;49.066;8.660;2023-07-31T01:09:45;1.65;;;0.80;;
69358;SDS011;56520;49.066;8.660;2023-07-31T01:12:03;1.58;;;0.63;;
69358;SDS011;56520;49.066;8.660;2023-07-31T01:14:31;2.08;;;0.60;;
69358;SDS011;56520;49.066;8.660;2023-07-31T01:16:57;2.33;;;0.88;;
69358;SDS011;56520;49.066;8.660;2023-07-31T01:19:23;2.53;;;0.90;;
69358;SDS011;56520;49.066;8.660;2023-07-31T01:22:12;2.28;;;0.98;;
69358;SDS011;56520;49.066;8.660;2023-07-31T01:28:02;2.20;;;0.70;;
69358;SDS011;56520;49.066;8.660;2023-07-31T01:30:34;1.85;;;0.90;;
69358;SDS011;56520;49.066;8.660;2023-07-31T01:33:08;1.98;;;0.90;;
69358;SDS011;56520;49.066;8.660;2023-07-31T01:35:34;2.25;;;0.80;;
69358;SDS011;56520;49.066;8.660;2023-07-31T01:38:01;2.88;;;1.02;;
69358;SDS011;56520;49.066;8.660;2023-07-31T01:40:26;2.15;;;0.90;;
69358;SDS011;56520;49.066;8.660;2023-07-31T01:42:54;1.80;;;0.80;;
69358;SDS011;56520;49.066;8.660;2023-07-31T01:45:20;2.45;;;0.70;;
69358;SDS011;56520;49.066;8.660;2023-07-31T01:47:45;3.20;;;0.80;;
69358;SDS011;56520;49.066;8.660;2023-07-31T01:50:10;2.28;;;1.00;;
69358;SDS011;56520;49.066;8.660;2023-07-31T01:52:36;1.52;;;0.60;;
69358;SDS011;56520;49.066;8.660;2023-07-31T01:55:01;1.80;;;0.80;;
69358;SDS011;56520;49.066;8.660;2023-07-31T01:57:27;3.17;;;1.10;;
69358;SDS011;56520;49.066;8.660;2023-07-31T01:59:52;3.45;;;1.10;;
69358;SDS011;56520;49.066;8.660;2023-07-31T02:02:18;2.35;;;1.00;;
69358;SDS011;56520;49.066;8.660;2023-07-31T02:04:44;2.47;;;1.00;;
69358;SDS011;56520;49.066;8.660;2023-07-31T02:07:10;2.22;;;0.93;;
69358;SDS011;56520;49.066;8.660;2023-07-31T02:09:35;2.65;;;0.82;;
69358;SDS011;56520;49.066;8.660;2023-07-31T02:12:01;2.45;;;0.70;;
69358;SDS011;56520;49.066;8.660;2023-07-31T02:14:26;2.45;;;0.95;;
69358;SDS011;56520;49.066;8.660;2023-07-31T02:16:52;2.30;;;1.00;;
69358;SDS011;56520;49.066;8.660;2023-07-31T02:19:20;1.92;;;0.70;;
69358;SDS011;56520;49.066;8.660;2023-07-31T02:21:45;2.40;;;0.77;;
69358;SDS011;56520;49.066;8.660;2023-07-31T02:24:10;4.03;;;1.20;;
69358;SDS011;56520;49.066;8.660;2023-07-31T02:26:36;2.75;;;1.15;;
69358;SDS011;56520;49.066;8.660;2023-07-31T02:29:01;4.40;;;1.20;;
69358;SDS011;56520;49.066;8.660;2023-07-31T02:31:26;3.30;;;1.10;;
69358;SDS011;56520;49.066;8.660;2023-07-31T02:33:52;6.63;;;1.30;;
69358;SDS011;56520;49.066;8.660;2023-07-31T02:36:17;3.67;;;1.00;;
69358;SDS011;56520;49.066;8.660;2023-07-31T02:38:43;5.10;;;1.55;;
69358;SDS011;56520;49.066;8.660;2023-07-31T02:41:08;3.42;;;0.90;;
69358;SDS011;56520;49.066;8.660;2023-07-31T02:43:33;4.05;;;1.15;;
69358;SDS011;56520;49.066;8.660;2023-07-31T02:45:59;3.40;;;1.02;;
69358;SDS011;56520;49.066;8.660;2023-07-31T02:48:24;2.05;;;0.77;;
69358;SDS011;56520;49.066;8.660;2023-07-31T02:50:50;2.38;;;0.95;;
69358;SDS011;56520;49.066;8.660;2023-07-31T02:53:15;6.20;;;1.30;;
69358;SDS011;56520;49.066;8.660;2023-07-31T02:55:40;3.08;;;1.35;;
69358;SDS011;56520;49.066;8.660;2023-07-31T02:58:06;2.38;;;0.75;;
69358;SDS011;56520;49.066;8.660;2023-07-31T03:00:31;2.70;;;1.10;;
69358;SDS011;56520;49.066;8.660;2023-07-31T03:02:57;2.08;;;0.73;;
69358;SDS011;56520;49.066;8.660;2023-07-31T03:05:22;2.33;;;1.00;;
69358;SDS011;56520;49.066;8.660;2023-07-31T03:07:48;1.85;;;0.80;;
69358;SDS011;56520;49.066;8.660;2023-07-31T03:10:13;1.67;;;0.63;;
69358;SDS011;56520;49.066;8.660;2023-07-31T03:12:39;1.15;;;0.63;;
69358;SDS011;56520;49.066;8.660;2023-07-31T03:15:05;2.33;;;0.73;;
69358;SDS011;56520;49.066;8.660;2023-07-31T03:17:31;1.23;;;0.63;;
69358;SDS011;56520;49.066;8.660;2023-07-31T03:20:00;2.08;;;0.77;;
69358;SDS011;56520;49.066;8.660;2023-07-31T03:22:37;1.65;;;0.68;;
69358;SDS011;56520;49.066;8.660;2023-07-31T03:25:03;1.65;;;0.70;;
69358;SDS011;56520;49.066;8.660;2023-07-31T03:27:28;2.08;;;0.90;;
69358;SDS011;56520;49.066;8.660;2023-07-31T03:29:54;1.25;;;0.75;;
69358;SDS011;56520;49.066;8.660;2023-07-31T03:32:19;1.25;;;0.68;;
69358;SDS011;56520;49.066;8.660;2023-07-31T03:34:45;2.58;;;1.05;;
69358;SDS011;56520;49.066;8.660;2023-07-31T03:37:10;2.08;;;1.00;;
69358;SDS011;56520;49.066;8.660;2023-07-31T03:39:35;2.47;;;1.10;;
69358;SDS011;56520;49.066;8.660;2023-07-31T03:42:01;1.65;;;0.70;;
69358;SDS011;56520;49.066;8.660;2023-07-31T03:44:26;4.68;;;0.90;;
69358;SDS011;56520;49.066;8.660;2023-07-31T03:46:52;2.17;;;0.93;;
69358;SDS011;56520;49.066;8.660;2023-07-31T03:49:17;2.33;;;0.80;;
69358;SDS011;56520;49.066;8.660;2023-07-31T03:51:51;2.97;;;1.05;;
69358;SDS011;56520;49.066;8.660;2023-07-31T03:54:18;2.22;;;0.80;;
69358;SDS011;56520;49.066;8.660;2023-07-31T03:56:44;2.88;;;1.02;;
69358;SDS011;56520;49.066;8.660;2023-07-31T03:59:09;3.20;;;1.05;;
69358;SDS011;56520;49.066;8.660;2023-07-31T04:01:35;1.95;;;0.70;;
69358;SDS011;56520;49.066;8.660;2023-07-31T04:04:00;2.50;;;0.90;;
69358;SDS011;56520;49.066;8.660;2023-07-31T04:06:28;3.90;;;1.00;;
69358;SDS011;56520;49.066;8.660;2023-07-31T04:08:54;3.05;;;1.05;;
69358;SDS011;56520;49.066;8.660;2023-07-31T04:11:19;2.95;;;1.02;;
69358;SDS011;56520;49.066;8.660;2023-07-31T04:13:44;2.20;;;0.95;;
69358;SDS011;56520;49.066;8.660;2023-07-31T04:16:10;6.05;;;0.98;;
69358;SDS011;56520;49.066;8.660;2023-07-31T04:18:35;1.58;;;0.80;;
69358;SDS011;56520;49.066;8.660;2023-07-31T04:21:00;2.78;;;1.00;;
69358;SDS011;56520;49.066;8.660;2023-07-31T04:23:27;2.33;;;0.90;;
69358;SDS011;56520;49.066;8.660;2023-07-31T04:25:53;2.22;;;0.88;;
69358;SDS011;56520;49.066;8.660;2023-07-31T04:28:18;2.45;;;1.00;;
69358;SDS011;56520;49.066;8.660;2023-07-31T04:30:43;2.53;;;0.77;;
69358;SDS011;56520;49.066;8.660;2023-07-31T04:33:09;2.58;;;1.00;;
69358;SDS011;56520;49.066;8.660;2023-07-31T04:35:34;2.88;;;1.00;;
69358;SDS011;56520;49.066;8.660;2023-07-31T04:38:00;2.05;;;0.80;;
69358;SDS011;56520;49.066;8.660;2023-07-31T04:40:25;3.22;;;1.20;;
69358;SDS011;56520;49.066;8.660;2023-07-31T04:42:51;2.83;;;1.02;;
69358;SDS011;56520;49.066;8.660;2023-07-31T04:45:16;3.42;;;1.20;;
69358;SDS011;56520;49.066;8.660;2023-07-31T04:47:41;2.92;;;0.95;;
69358;SDS011;56520;49.066;8.660;2023-07-31T04:50:07;2.80;;;1.00;;
69358;SDS011;56520;49.066;8.660;2023-07-31T04:52:33;2.45;;;0.90;;
69358;SDS011;56520;49.066;8.660;2023-07-31T04:54:58;2.95;;;1.15;;
69358;SDS011;56520;49.066;8.660;2023-07-31T04:57:24;3.28;;;1.10;;
69358;SDS011;56520;49.066;8.660;2023-07-31T04:59:49;2.95;;;0.95;;
69358;SDS011;56520;49.066;8.660;2023-07-31T05:02:14;2.53;;;0.90;;
69358;SDS011;56520;49.066;8.660;2023-07-31T05:04:40;2.60;;;0.90;;
69358;SDS011;56520;49.066;8.660;2023-07-31T05:07:05;2.70;;;0.80;;
69358;SDS011;56520;49.066;8.660;2023-07-31T05:09:31;2.00;;;0.90;;
69358;SDS011;56520;49.066;8.660;2023-07-31T05:11:56;2.67;;;1.02;;
69358;SDS011;56520;49.066;8.660;2023-07-31T05:14:21;2.00;;;0.82;;
69358;SDS011;56520;49.066;8.660;2023-07-31T05:16:47;3.25;;;1.20;;
69358;SDS011;56520;49.066;8.660;2023-07-31T05:19:12;3.55;;;1.05;;
69358;SDS011;56520;49.066;8.660;2023-07-31T05:21:37;2.90;;;1.02;;
69358;SDS011;56520;49.066;8.660;2023-07-31T05:24:03;2.00;;;0.82;;
69358;SDS011;56520;49.066;8.660;2023-07-31T05:26:30;2.30;;;0.80;;
69358;SDS011;56520;49.066;8.660;2023-07-31T05:28:55;4.40;;;1.20;;
69358;SDS011;56520;49.066;8.660;2023-07-31T05:31:21;3.00;;;1.17;;
69358;SDS011;56520;49.066;8.660;2023-07-31T05:33:47;2.55;;;1.00;;
69358;SDS011;56520;49.066;8.660;2023-07-31T05:36:15;2.58;;;1.00;;
69358;SDS011;56520;49.066;8.660;2023-07-31T05:38:40;3.35;;;0.93;;
69358;SDS011;56520;49.066;8.660;2023-07-31T05:41:06;4.88;;;1.17;;
69358;SDS011;56520;49.066;8.660;2023-07-31T05:43:31;2.70;;;1.05;;
69358;SDS011;56520;49.066;8.660;2023-07-31T05:45:56;2.67;;;1.10;;
69358;SDS011;56520;49.066;8.660;2023-07-31T05:48:22;4.63;;;1.20;;
69358;SDS011;56520;49.066;8.660;2023-07-31T05:50:47;3.05;;;1.00;;
69358;SDS011;56520;49.066;8.660;2023-07-31T05:53:13;2.60;;;0.90;;
69358;SDS011;56520;49.066;8.660;2023-07-31T05:55:38;3.35;;;1.20;;
69358;SDS011;56520;49.066;8.660;2023-07-31T05:58:03;3.78;;;1.20;;
69358;SDS011;56520;49.066;8.660;2023-07-31T06:00:29;4.40;;;1.30;;
69358;SDS011;56520;49.066;8.660;2023-07-31T06:02:54;4.40;;;1.13;;
69358;SDS011;56520;49.066;8.660;2023-07-31T06:05:20;3.10;;;1.23;;
69358;SDS011;56520;49.066;8.660;2023-07-31T06:07:45;2.60;;;0.80;;
69358;SDS011;56520;49.066;8.660;2023-07-31T06:10:11;3.17;;;1.10;;
69358;SDS011;56520;49.066;8.660;2023-07-31T06:12:36;2.50;;;0.93;;
69358;SDS011;56520;49.066;8.660;2023-07-31T06:15:02;3.00;;;1.25;;
69358;SDS011;56520;49.066;8.660;2023-07-31T06:17:28;3.38;;;0.93;;
69358;SDS011;56520;49.066;8.660;2023-07-31T06:19:56;4.07;;;1.23;;
69358;SDS011;56520;49.066;8.660;2023-07-31T06:22:22;4.10;;;1.25;;
69358;SDS011;56520;49.066;8.660;2023-07-31T06:24:47;3.83;;;1.30;;
69358;SDS011;56520;49.066;8.660;2023-07-31T06:27:13;4.00;;;1.10;;
69358;SDS011;56520;49.066;8.660;2023-07-31T06:29:38;5.07;;;1.30;;
69358;SDS011;56520;49.066;8.660;2023-07-31T06:32:04;4.45;;;1.45;;
69358;SDS011;56520;49.066;8.660;2023-07-31T06:34:29;2.58;;;0.88;;
69358;SDS011;56520;49.066;8.660;2023-07-31T06:36:55;3.67;;;1.10;;
69358;SDS011;56520;49.066;8.660;2023-07-31T06:39:21;3.33;;;0.93;;
69358;SDS011;56520;49.066;8.660;2023-07-31T06:41:47;2.58;;;0.90;;
69358;SDS011;56520;49.066;8.660;2023-07-31T06:44:12;2.22;;;0.90;;
69358;SDS011;56520;49.066;8.660;2023-07-31T06:46:37;5.55;;;1.58;;
69358;SDS011;56520;49.066;8.660;2023-07-31T06:49:03;5.20;;;1.10;;
69358;SDS011;56520;49.066;8.660;2023-07-31T06:51:28;4.78;;;1.10;;
69358;SDS011;56520;49.066;8.660;2023-07-31T06:53:56;2.70;;;0.80;;
69358;SDS011;56520;49.066;8.660;2023-07-31T06:56:22;5.43;;;1.10;;
69358;SDS011;56520;49.066;8.660;2023-07-31T06:58:47;4.90;;;1.27;;
69358;SDS011;56520;49.066;8.660;2023-07-31T07:01:13;5.13;;;1.60;;
69358;SDS011;56520;49.066;8.660;2023-07-31T07:03:38;5.03;;;1.38;;
69358;SDS011;56520;49.066;8.660;2023-07-31T07:06:03;5.70;;;1.10;;
69358;SDS011;56520;49.066;8.660;2023-07-31T07:08:29;4.13;;;0.80;;
69358;SDS011;56520;49.066;8.660;2023-07-31T07:10:54;4.15;;;1.10;;
69358;SDS011;56520;49.066;8.660;2023-07-31T07:13:20;4.72;;;1.20;;
69358;SDS011;56520;49.066;8.660;2023-07-31T07:15:49;4.05;;;0.90;;
69358;SDS011;56520;49.066;8.660;2023-07-31T07:18:16;4.80;;;1.10;;
69358;SDS011;56520;49.066;8.660;2023-07-31T07:20:52;3.70;;;1.05;;
69358;SDS011;56520;49.066;8.660;2023-07-31T07:23:18;3.65;;;1.30;;
69358;SDS011;56520;49.066;8.660;2023-07-31T07:25:45;3.67;;;1.20;;
69358;SDS011;56520;49.066;8.660;2023-07-31T07:28:10;3.35;;;1.10;;
69358;SDS011;56520;49.066;8.660;2023-07-31T07:30:36;4.72;;;1.17;;
69358;SDS011;56520;49.066;8.660;2023-07-31T07:33:01;4.57;;;1.17;;
69358;SDS011;56520;49.066;8.660;2023-07-31T07:35:27;4.35;;;1.00;;
69358;SDS011;56520;49.066;8.660;2023-07-31T07:37:52;3.97;;;1.00;;
69358;SDS011;56520;49.066;8.660;2023-07-31T07:40:18;8.02;;;1.30;;
69358;SDS011;56520;49.066;8.660;2023-07-31T07:42:44;4.93;;;1.27;;
69358;SDS011;56520;49.066;8.660;2023-07-31T07:45:10;3.00;;;1.10;;
69358;SDS011;56520;49.066;8.660;2023-07-31T07:47:35;5.05;;;1.40;;
69358;SDS011;56520;49.066;8.660;2023-07-31T07:50:01;5.03;;;1.10;;
69358;SDS011;56520;49.066;8.660;2023-07-31T07:52:28;5.57;;;1.13;;
69358;SDS011;56520;49.066;8.660;2023-07-31T07:54:57;4.50;;;1.33;;
69358;SDS011;56520;49.066;8.660;2023-07-31T07:57:22;3.70;;;1.10;;
69358;SDS011;56520;49.066;8.660;2023-07-31T07:59:48;6.10;;;1.20;;
69358;SDS011;56520;49.066;8.660;2023-07-31T08:02:13;3.58;;;1.00;;
69358;SDS011;56520;49.066;8.660;2023-07-31T08:04:38;3.92;;;1.05;;
69358;SDS011;56520;49.066;8.660;2023-07-31T08:07:04;4.13;;;1.00;;
69358;SDS011;56520;49.066;8.660;2023-07-31T08:09:29;3.90;;;1.05;;
69358;SDS011;56520;49.066;8.660;2023-07-31T08:11:55;4.85;;;1.40;;
69358;SDS011;56520;49.066;8.660;2023-07-31T08:14:22;5.05;;;1.30;;
69358;SDS011;56520;49.066;8.660;2023-07-31T08:16:48;4.80;;;1.30;;
69358;SDS011;56520;49.066;8.660;2023-07-31T08:19:13;6.50;;;1.27;;
69358;SDS011;56520;49.066;8.660;2023-07-31T08:21:39;3.65;;;1.27;;
69358;SDS011;56520;49.066;8.660;2023-07-31T08:24:04;5.47;;;1.35;;
69358;SDS011;56520;49.066;8.660;2023-07-31T08:26:29;7.78;;;1.52;;
69358;SDS011;56520;49.066;8.660;2023-07-31T08:28:55;5.90;;;1.30;;
69358;SDS011;56520;49.066;8.660;2023-07-31T08:31:20;4.00;;;1.23;;
69358;SDS011;56520;49.066;8.660;2023-07-31T08:33:46;4.68;;;1.30;;
69358;SDS011;56520;49.066;8.660;2023-07-31T08:36:11;2.67;;;1.00;;
69358;SDS011;56520;49.066;8.660;2023-07-31T08:38:37;5.78;;;1.33;;
69358;SDS011;56520;49.066;8.660;2023-07-31T08:41:03;5.47;;;1.10;;
69358;SDS011;56520;49.066;8.660;2023-07-31T08:43:29;3.63;;;1.10;;
69358;SDS011;56520;49.066;8.660;2023-07-31T08:45:55;5.13;;;1.08;;
69358;SDS011;56520;49.066;8.660;2023-07-31T08:48:22;5.13;;;1.50;;
69358;SDS011;56520;49.066;8.660;2023-07-31T08:50:49;5.93;;;1.10;;
69358;SDS011;56520;49.066;8.660;2023-07-31T08:53:15;4.43;;;1.40;;
69358;SDS011;56520;49.066;8.660;2023-07-31T08:55:41;7.75;;;1.27;;
69358;SDS011;56520;49.066;8.660;2023-07-31T08:58:07;4.85;;;1.10;;
69358;SDS011;56520;49.066;8.660;2023-07-31T09:00:33;4.93;;;1.30;;
69358;SDS011;56520;49.066;8.660;2023-07-31T09:03:03;2.65;;;0.90;;
69358;SDS011;56520;49.066;8.660;2023-07-31T09:05:33;4.82;;;1.23;;
69358;SDS011;56520;49.066;8.660;2023-07-31T09:07:58;5.22;;;1.35;;
69358;SDS011;56520;49.066;8.660;2023-07-31T09:10:27;4.15;;;1.23;;
69358;SDS011;56520;49.066;8.660;2023-07-31T09:12:52;4.93;;;1.30;;
69358;SDS011;56520;49.066;8.660;2023-07-31T09:15:18;7.50;;;1.40;;
69358;SDS011;56520;49.066;8.660;2023-07-31T09:17:44;5.43;;;1.40;;
69358;SDS011;56520;49.066;8.660;2023-07-31T09:20:19;4.88;;;1.13;;
69358;SDS011;56520;49.066;8.660;2023-07-31T09:22:46;3.80;;;1.10;;
69358;SDS011;56520;49.066;8.660;2023-07-31T09:25:15;4.60;;;1.40;;
69358;SDS011;56520;49.066;8.660;2023-07-31T09:30:13;6.43;;;1.40;;
69358;SDS011;56520;49.066;8.660;2023-07-31T09:32:39;3.63;;;1.20;;
69358;SDS011;56520;49.066;8.660;2023-07-31T09:35:21;5.00;;;1.10;;
69358;SDS011;56520;49.066;8.660;2023-07-31T09:38:01;4.88;;;1.20;;
69358;SDS011;56520;49.066;8.660;2023-07-31T09:40:36;4.82;;;1.40;;
69358;SDS011;56520;49.066;8.660;2023-07-31T09:43:03;5.03;;;1.50;;
69358;SDS011;56520;49.066;8.660;2023-07-31T09:45:30;4.93;;;1.35;;
69358;SDS011;56520;49.066;8.660;2023-07-31T09:47:59;3.50;;;1.10;;
69358;SDS011;56520;49.066;8.660;2023-07-31T09:50:24;5.28;;;1.30;;
69358;SDS011;56520;49.066;8.660;2023-07-31T09:52:50;4.82;;;1.50;;
69358;SDS011;56520;49.066;8.660;2023-07-31T09:55:17;5.95;;;1.40;;
69358;SDS011;56520;49.066;8.660;2023-07-31T09:57:47;5.13;;;1.80;;
69358;SDS011;56520;49.066;8.660;2023-07-31T10:00:14;4.78;;;1.45;;
69358;SDS011;56520;49.066;8.660;2023-07-31T10:02:41;6.20;;;1.40;;
69358;SDS011;56520;49.066;8.660;2023-07-31T10:05:12;6.35;;;1.67;;
69358;SDS011;56520;49.066;8.660;2023-07-31T10:07:40;5.10;;;1.35;;
69358;SDS011;56520;49.066;8.660;2023-07-31T10:10:08;5.40;;;1.50;;
69358;SDS011;56520;49.066;8.660;2023-07-31T10:12:36;5.05;;;1.63;;
69358;SDS011;56520;49.066;8.660;2023-07-31T10:15:03;6.38;;;1.63;;
69358;SDS011;56520;49.066;8.660;2023-07-31T10:17:30;5.00;;;1.33;;
69358;SDS011;56520;49.066;8.660;2023-07-31T10:19:57;4.10;;;1.40;;
69358;SDS011;56520;49.066;8.660;2023-07-31T10:22:24;7.10;;;1.17;;
69358;SDS011;56520;49.066;8.660;2023-07-31T10:24:50;4.75;;;1.23;;
69358;SDS011;56520;49.066;8.660;2023-07-31T10:27:19;7.65;;;1.67;;
69358;SDS011;56520;49.066;8.660;2023-07-31T10:29:45;4.55;;;1.48;;
69358;SDS011;56520;49.066;8.660;2023-07-31T10:32:12;4.68;;;1.10;;
69358;SDS011;56520;49.066;8.660;2023-07-31T10:34:40;6.18;;;1.90;;
69358;SDS011;56520;49.066;8.660;2023-07-31T10:37:25;4.70;;;1.20;;
69358;SDS011;56520;49.066;8.660;2023-07-31T10:40:38;4.72;;;1.30;;
69358;SDS011;56520;49.066;8.660;2023-07-31T10:42:51;6.50;;;1.52;;
69358;SDS011;56520;49.066;8.660;2023-07-31T10:50:29;4.90;;;1.65;;
69358;SDS011;56520;49.066;8.660;2023-07-31T10:52:57;6.60;;;1.60;;
69358;SDS011;56520;49.066;8.660;2023-07-31T10:55:28;4.95;;;1.30;;
69358;SDS011;56520;49.066;8.660;2023-07-31T10:57:58;5.03;;;1.20;;
69358;SDS011;56520;49.066;8.660;2023-07-31T11:00:31;5.88;;;1.40;;
69358;SDS011;56520;49.066;8.660;2023-07-31T11:05:28;6.13;;;1.67;;
69358;SDS011;56520;49.066;8.660;2023-07-31T11:08:19;3.25;;;1.20;;
69358;SDS011;56520;49.066;8.660;2023-07-31T11:13:26;4.18;;;1.15;;
69358;SDS011;56520;49.066;8.660;2023-07-31T11:15:51;4.30;;;1.30;;
69358;SDS011;56520;49.066;8.660;2023-07-31T11:18:17;7.60;;;1.45;;
69358;SDS011;56520;49.066;8.660;2023-07-31T11:20:43;6.30;;;1.48;;
69358;SDS011;56520;49.066;8.660;2023-07-31T11:23:09;4.90;;;1.30;;
69358;SDS011;56520;49.066;8.660;2023-07-31T11:25:35;5.95;;;1.27;;
69358;SDS011;56520;49.066;8.660;2023-07-31T11:28:06;4.10;;;1.27;;
69358;SDS011;56520;49.066;8.660;2023-07-31T11:30:33;7.00;;;1.50;;
69358;SDS011;56520;49.066;8.660;2023-07-31T11:33:00;4.93;;;1.52;;
69358;SDS011;56520;49.066;8.660;2023-07-31T11:35:28;5.03;;;1.52;;
69358;SDS011;56520;49.066;8.660;2023-07-31T11:38:01;5.28;;;1.30;;
69358;SDS011;56520;49.066;8.660;2023-07-31T11:40:27;5.60;;;1.23;;
69358;SDS011;56520;49.066;8.660;2023-07-31T11:42:57;5.05;;;1.30;;
69358;SDS011;56520;49.066;8.660;2023-07-31T11:45:24;6.32;;;1.50;;
69358;SDS011;56520;49.066;8.660;2023-07-31T11:47:51;5.95;;;1.60;;
69358;SDS011;56520;49.066;8.660;2023-07-31T11:50:18;3.80;;;1.20;;
69358;SDS011;56520;49.066;8.660;2023-07-31T11:52:44;6.40;;;1.50;;
69358;SDS011;56520;49.066;8.660;2023-07-31T11:55:11;5.65;;;1.50;;
69358;SDS011;56520;49.066;8.660;2023-07-31T11:57:37;5.07;;;1.80;;
69358;SDS011;56520;49.066;8.660;2023-07-31T12:00:05;4.13;;;1.30;;
69358;SDS011;56520;49.066;8.660;2023-07-31T12:02:33;5.93;;;1.52;;
69358;SDS011;56520;49.066;8.660;2023-07-31T12:04:59;4.63;;;1.40;;
69358;SDS011;56520;49.066;8.660;2023-07-31T12:07:24;6.35;;;1.50;;
69358;SDS011;56520;49.066;8.660;2023-07-31T12:09:56;5.78;;;1.60;;
69358;SDS011;56520;49.066;8.660;2023-07-31T12:12:22;4.97;;;1.50;;
69358;SDS011;56520;49.066;8.660;2023-07-31T12:14:48;7.80;;;1.63;;
69358;SDS011;56520;49.066;8.660;2023-07-31T12:17:15;7.03;;;1.70;;
69358;SDS011;56520;49.066;8.660;2023-07-31T12:19:41;5.93;;;1.50;;
69358;SDS011;56520;49.066;8.660;2023-07-31T12:22:13;4.30;;;1.00;;
69358;SDS011;56520;49.066;8.660;2023-07-31T12:24:41;4.85;;;1.30;;
69358;SDS011;56520;49.066;8.660;2023-07-31T12:27:12;7.50;;;1.58;;
69358;SDS011;56520;49.066;8.660;2023-07-31T12:29:41;3.55;;;1.20;;
69358;SDS011;56520;49.066;8.660;2023-07-31T12:32:21;4.60;;;1.40;;
69358;SDS011;56520;49.066;8.660;2023-07-31T12:34:49;5.00;;;1.60;;
69358;SDS011;56520;49.066;8.660;2023-07-31T12:37:14;5.22;;;1.58;;
69358;SDS011;56520;49.066;8.660;2023-07-31T12:39:39;5.55;;;1.80;;
69358;SDS011;56520;49.066;8.660;2023-07-31T12:42:05;5.68;;;1.70;;
69358;SDS011;56520;49.066;8.660;2023-07-31T12:44:31;4.10;;;1.50;;
69358;SDS011;56520;49.066;8.660;2023-07-31T12:46:56;5.28;;;1.30;;
69358;SDS011;56520;49.066;8.660;2023-07-31T12:49:22;4.22;;;1.30;;
69358;SDS011;56520;49.066;8.660;2023-07-31T12:51:47;5.65;;;1.50;;
69358;SDS011;56520;49.066;8.660;2023-07-31T12:54:12;5.95;;;1.58;;
69358;SDS011;56520;49.066;8.660;2023-07-31T12:56:38;5.88;;;1.52;;
69358;SDS011;56520;49.066;8.660;2023-07-31T12:59:05;6.15;;;1.40;;
69358;SDS011;56520;49.066;8.660;2023-07-31T13:01:30;5.55;;;1.50;;
69358;SDS011;56520;49.066;8.660;2023-07-31T13:03:56;4.53;;;1.52;;
69358;SDS011;56520;49.066;8.660;2023-07-31T13:06:22;6.57;;;1.33;;
69358;SDS011;56520;49.066;8.660;2023-07-31T13:08:47;6.05;;;1.85;;
69358;SDS011;56520;49.066;8.660;2023-07-31T13:11:13;5.93;;;1.45;;
69358;SDS011;56520;49.066;8.660;2023-07-31T13:13:38;3.75;;;1.33;;
69358;SDS011;56520;49.066;8.660;2023-07-31T13:16:04;5.00;;;1.55;;
69358;SDS011;56520;49.066;8.660;2023-07-31T13:18:29;5.72;;;1.73;;
69358;SDS011;56520;49.066;8.660;2023-07-31T13:20:54;4.90;;;1.60;;
69358;SDS011;56520;49.066;8.660;2023-07-31T13:23:20;3.33;;;1.27;;
69358;SDS011;56520;49.066;8.660;2023-07-31T13:25:45;4.47;;;1.38;;
69358;SDS011;56520;49.066;8.660;2023-07-31T13:28:11;5.30;;;1.30;;
69358;SDS011;56520;49.066;8.660;2023-07-31T13:30:36;6.70;;;1.40;;
69358;SDS011;56520;49.066;8.660;2023-07-31T13:33:01;3.75;;;1.25;;
69358;SDS011;56520;49.066;8.660;2023-07-31T13:35:27;7.45;;;1.73;;
69358;SDS011;56520;49.066;8.660;2023-07-31T13:37:53;5.95;;;1.40;;
69358;SDS011;56520;49.066;8.660;2023-07-31T13:40:18;4.93;;;1.35;;
69358;SDS011;56520;49.066;8.660;2023-07-31T13:42:43;5.03;;;1.40;;
69358;SDS011;56520;49.066;8.660;2023-07-31T13:45:09;4.57;;;1.48;;
69358;SDS011;56520;49.066;8.660;2023-07-31T13:47:34;4.30;;;1.40;;
69358;SDS011;56520;49.066;8.660;2023-07-31T13:50:02;4.30;;;1.17;;
69358;SDS011;56520;49.066;8.660;2023-07-31T13:52:27;3.17;;;1.30;;
69358;SDS011;56520;49.066;8.660;2023-07-31T13:54:52;3.78;;;1.20;;
69358;SDS011;56520;49.066;8.660;2023-07-31T13:57:18;4.18;;;1.30;;
69358;SDS011;56520;49.066;8.660;2023-07-31T13:59:43;3.95;;;1.42;;
69358;SDS011;56520;49.066;8.660;2023-07-31T14:02:09;5.00;;;1.52;;
69358;SDS011;56520;49.066;8.660;2023-07-31T14:04:34;5.70;;;1.42;;
69358;SDS011;56520;49.066;8.660;2023-07-31T14:06:59;4.00;;;1.50;;
69358;SDS011;56520;49.066;8.660;2023-07-31T14:09:25;5.30;;;1.50;;
69358;SDS011;56520;49.066;8.660;2023-07-31T14:11:51;4.72;;;1.60;;
69358;SDS011;56520;49.066;8.660;2023-07-31T14:14:17;4.13;;;1.50;;
69358;SDS011;56520;49.066;8.660;2023-07-31T14:16:44;5.50;;;1.40;;
69358;SDS011;56520;49.066;8.660;2023-07-31T14:19:09;6.65;;;1.52;;
69358;SDS011;56520;49.066;8.660;2023-07-31T14:21:35;6.30;;;1.60;;
69358;SDS011;56520;49.066;8.660;2023-07-31T14:24:01;8.95;;;1.50;;
69358;SDS011;56520;49.066;8.660;2023-07-31T14:26:26;5.45;;;1.50;;
69358;SDS011;56520;49.066;8.660;2023-07-31T14:28:52;5.55;;;1.38;;
69358;SDS011;56520;49.066;8.660;2023-07-31T14:31:17;5.22;;;1.30;;
69358;SDS011;56520;49.066;8.660;2023-07-31T14:33:42;4.65;;;1.50;;
69358;SDS011;56520;49.066;8.660;2023-07-31T14:36:08;4.55;;;1.13;;
69358;SDS011;56520;49.066;8.660;2023-07-31T14:38:33;4.18;;;1.40;;
69358;SDS011;56520;49.066;8.660;2023-07-31T14:40:59;5.72;;;1.67;;
69358;SDS011;56520;49.066;8.660;2023-07-31T14:43:24;7.28;;;1.65;;
69358;SDS011;56520;49.066;8.660;2023-07-31T14:45:49;5.05;;;1.30;;
69358;SDS011;56520;49.066;8.660;2023-07-31T14:48:15;5.70;;;1.70;;
69358;SDS011;56520;49.066;8.660;2023-07-31T14:50:40;4.95;;;1.75;;
69358;SDS011;56520;49.066;8.660;2023-07-31T14:53:06;5.53;;;1.38;;
69358;SDS011;56520;49.066;8.660;2023-07-31T14:55:31;4.30;;;1.42;;
69358;SDS011;56520;49.066;8.660;2023-07-31T14:57:56;5.18;;;1.40;;
69358;SDS011;56520;49.066;8.660;2023-07-31T15:00:22;4.57;;;1.48;;